Time;durP1;ratioP1;P1;durP2;ratioP2;P2;SDS_P1;SDS_P2;PMS_P1;PMS_P2;Temp;Humidity;BMP_temperature;BMP_pressure;BME280_temperature;BME280_humidity;BME280_pressure;Samples;Min_cycle;Max_cycle;Signal;HPM_P1;HPM_P2
2021/07/14 00:00:16;;;;;;;4.53;3.20;;;15.60;95.40;;;;;;5064116;28;20218;-75
2021/07/14 00:02:42;;;;;;;4.30;2.83;;;15.60;95.60;;;;;;5056971;28;20652;-76
2021/07/14 00:05:13;;;;;;;6.80;3.47;;;15.50;95.60;;;;;;5060848;28;20463;-76
2021/07/14 00:07:39;;;;;;;5.00;3.17;;;15.50;95.60;;;;;;5065184;28;20201;-75
2021/07/14 00:10:12;;;;;;;6.07;3.80;;;15.50;95.60;;;;;;5058594;28;20485;-76
2021/07/14 00:12:54;;;;;;;5.00;3.03;;;15.50;95.50;;;;;;5064652;28;20429;-75
2021/07/14 00:23:47;;;;;;;4.70;2.83;;;15.40;95.20;;;;;;5067246;28;20882;-76
2021/07/14 00:26:13;;;;;;;4.20;3.07;;;15.30;95.30;;;;;;5060247;28;20461;-76
2021/07/14 00:28:40;;;;;;;6.03;3.33;;;15.30;95.30;;;;;;5055591;28;20215;-76
2021/07/14 00:31:13;;;;;;;5.00;2.90;;;15.30;95.60;;;;;;5058988;28;20212;-76
2021/07/14 00:33:39;;;;;;;4.27;3.03;;;15.20;95.70;;;;;;5063989;28;20458;-75
2021/07/14 00:36:04;;;;;;;4.70;3.10;;;15.20;95.90;;;;;;5063439;28;20455;-76
2021/07/14 00:38:30;;;;;;;9.90;3.80;;;15.20;96.00;;;;;;5068554;28;20213;-76
2021/07/14 00:40:56;;;;;;;3.70;3.03;;;15.30;96.30;;;;;;5064847;28;20362;-75
2021/07/14 00:43:21;;;;;;;5.40;3.00;;;15.30;96.00;;;;;;5066848;28;20184;-76
2021/07/14 00:45:47;;;;;;;4.00;3.13;;;15.30;95.70;;;;;;5054002;28;20187;-76
2021/07/14 00:48:14;;;;;;;6.50;3.50;;;15.30;95.70;;;;;;5056206;28;20227;-76
2021/07/14 00:50:40;;;;;;;4.70;3.30;;;15.20;95.80;;;;;;5052549;28;20232;-75
2021/07/14 00:53:06;;;;;;;4.40;2.80;;;15.20;95.70;;;;;;5054865;28;20455;-75
2021/07/14 00:55:33;;;;;;;5.50;3.27;;;15.20;95.70;;;;;;5055523;28;20555;-75
2021/07/14 00:57:59;;;;;;;5.77;3.30;;;15.10;95.90;;;;;;5054582;28;20465;-75
2021/07/14 01:00:25;;;;;;;6.90;3.97;;;15.10;95.90;;;;;;5052330;28;20475;-75
2021/07/14 01:02:50;;;;;;;4.87;2.87;;;15.10;96.10;;;;;;5053293;28;20921;-75
2021/07/14 01:05:21;;;;;;;6.40;3.43;;;15.10;96.10;;;;;;5053596;28;20717;-76
2021/07/14 01:08:07;;;;;;;10.10;4.00;;;15.10;95.80;;;;;;5041962;28;20188;-76
2021/07/14 01:10:41;;;;;;;5.03;3.73;;;15.00;95.90;;;;;;5042260;28;20455;-76
2021/07/14 01:13:12;;;;;;;4.70;3.90;;;15.00;96.00;;;;;;5052294;28;20472;-75
2021/07/14 01:15:55;;;;;;;6.17;3.80;;;15.00;95.90;;;;;;5053777;28;20500;-76
2021/07/14 01:18:38;;;;;;;5.23;3.60;;;15.10;95.50;;;;;;5053701;28;20510;-77
2021/07/14 01:21:33;;;;;;;4.97;3.57;;;15.10;95.00;;;;;;5045418;28;20434;-74
2021/07/14 01:24:08;;;;;;;6.37;3.77;;;15.20;94.80;;;;;;5052884;28;20483;-75
2021/07/14 01:26:53;;;;;;;5.37;3.70;;;15.20;94.60;;;;;;5052041;28;20435;-76
2021/07/14 01:29:21;;;;;;;5.20;3.67;;;15.20;94.80;;;;;;5051571;28;20451;-75
2021/07/14 01:31:50;;;;;;;7.73;3.80;;;15.30;94.60;;;;;;5052714;28;20435;-75
2021/07/14 01:34:19;;;;;;;4.67;3.60;;;15.30;94.60;;;;;;5053245;28;21085;-75
2021/07/14 01:36:48;;;;;;;4.53;3.40;;;15.40;94.60;;;;;;5053217;28;20442;-75
2021/07/14 01:39:15;;;;;;;5.70;3.13;;;15.40;94.50;;;;;;5051655;28;20470;-75
2021/07/14 01:41:43;;;;;;;5.80;3.47;;;15.50;94.40;;;;;;5043076;28;20860;-75
2021/07/14 01:44:11;;;;;;;4.53;3.30;;;15.50;94.40;;;;;;5052956;28;20427;-75
2021/07/14 01:46:38;;;;;;;4.80;3.17;;;15.50;94.10;;;;;;5053032;28;20412;-76
2021/07/14 01:49:14;;;;;;;6.03;3.20;;;15.60;94.00;;;;;;5051580;28;20498;-75
2021/07/14 01:51:48;;;;;;;6.47;3.70;;;15.60;94.00;;;;;;5051987;28;20431;-75
2021/07/14 01:54:15;;;;;;;5.40;3.60;;;15.60;94.10;;;;;;5044122;28;20427;-77
2021/07/14 01:56:43;;;;;;;4.07;3.40;;;15.70;93.60;;;;;;5052124;28;20458;-74
2021/07/14 01:59:10;;;;;;;7.97;3.87;;;15.50;93.60;;;;;;5052511;28;20474;-75
2021/07/14 02:01:41;;;;;;;8.87;4.00;;;15.40;94.00;;;;;;5050938;28;20431;-76
2021/07/14 02:06:57;;;;;;;10.70;3.80;;;15.30;94.70;;;;;;5044281;28;20426;-75
2021/07/14 02:09:23;;;;;;;7.33;3.73;;;15.30;95.10;;;;;;5046324;28;20443;-75
2021/07/14 02:11:51;;;;;;;8.67;4.03;;;15.30;95.00;;;;;;5043423;28;20484;-76
2021/07/14 02:14:23;;;;;;;5.77;3.67;;;15.40;94.80;;;;;;5046228;28;20430;-74
2021/07/14 02:16:50;;;;;;;7.10;4.20;;;15.40;94.70;;;;;;5047131;28;20851;-75
2021/07/14 02:19:18;;;;;;;6.00;3.33;;;15.50;94.70;;;;;;5043596;28;20478;-75
2021/07/14 02:21:44;;;;;;;8.90;4.10;;;15.50;94.30;;;;;;5043280;28;20842;-76
2021/07/14 02:24:12;;;;;;;6.50;3.90;;;15.50;94.10;;;;;;5042469;28;20956;-75
2021/07/14 02:26:39;;;;;;;6.03;3.97;;;15.40;94.10;;;;;;5041775;28;20482;-75
2021/07/14 02:29:05;;;;;;;4.10;3.00;;;15.40;94.10;;;;;;5050400;28;20534;-76
2021/07/14 02:31:32;;;;;;;8.50;4.03;;;15.40;94.40;;;;;;5040385;28;20510;-76
2021/07/14 02:33:59;;;;;;;6.60;3.87;;;15.40;94.40;;;;;;5049660;28;20559;-76
2021/07/14 02:36:26;;;;;;;6.37;3.97;;;15.40;94.70;;;;;;5038794;28;20432;-76
2021/07/14 02:38:57;;;;;;;5.27;3.90;;;15.40;94.60;;;;;;5047327;28;20466;-76
2021/07/14 02:41:29;;;;;;;5.17;3.47;;;15.50;94.00;;;;;;5045248;28;20430;-76
2021/07/14 02:44:24;;;;;;;4.17;3.20;;;15.40;93.90;;;;;;5045827;28;20472;-75
2021/07/14 02:46:53;;;;;;;5.53;3.67;;;15.40;94.10;;;;;;5050999;28;20437;-76
2021/07/14 02:49:30;;;;;;;6.80;3.70;;;15.30;94.30;;;;;;5045055;28;20517;-76
2021/07/14 02:51:57;;;;;;;5.60;3.67;;;15.30;94.50;;;;;;5050738;28;20502;-77
2021/07/14 02:54:26;;;;;;;5.43;3.60;;;15.20;94.40;;;;;;5055152;28;20423;-76
2021/07/14 02:57:01;;;;;;;7.40;3.90;;;15.20;94.70;;;;;;5057228;28;20427;-74
2021/07/14 02:59:33;;;;;;;6.00;3.77;;;15.30;94.40;;;;;;5058767;28;20471;-76
2021/07/14 03:02:00;;;;;;;7.00;3.93;;;15.40;93.80;;;;;;5053163;28;20770;-75
2021/07/14 03:04:33;;;;;;;6.43;3.90;;;15.40;94.00;;;;;;5051527;28;20426;-76
2021/07/14 03:07:02;;;;;;;6.17;4.00;;;15.40;93.90;;;;;;5043321;28;20781;-76
2021/07/14 03:09:37;;;;;;;6.90;4.00;;;15.40;94.10;;;;;;5050391;28;20473;-77
2021/07/14 03:12:07;;;;;;;8.43;4.37;;;15.30;94.40;;;;;;5050885;28;20406;-74
2021/07/14 03:14:36;;;;;;;5.63;4.07;;;15.40;94.30;;;;;;5051472;28;20807;-76
2021/07/14 03:17:03;;;;;;;7.40;4.33;;;15.40;94.00;;;;;;5047527;28;20453;-75
2021/07/14 03:19:30;;;;;;;6.43;4.30;;;15.40;94.00;;;;;;5042836;28;20858;-74
2021/07/14 03:21:57;;;;;;;7.10;3.60;;;15.30;94.00;;;;;;5044019;28;20423;-76
2021/07/14 03:24:24;;;;;;;7.50;4.13;;;15.30;94.00;;;;;;5049490;28;20419;-76
2021/07/14 03:26:50;;;;;;;8.60;4.23;;;15.30;94.20;;;;;;5044663;28;20424;-75
2021/07/14 03:29:17;;;;;;;7.47;4.20;;;15.30;94.40;;;;;;5048897;28;20933;-74
2021/07/14 03:31:45;;;;;;;7.87;4.50;;;15.30;94.40;;;;;;5037694;28;20969;-75
2021/07/14 03:34:11;;;;;;;6.07;4.10;;;15.40;94.10;;;;;;5048980;28;20451;-75
2021/07/14 03:36:37;;;;;;;7.60;3.93;;;15.40;93.90;;;;;;5042341;28;20589;-75
2021/07/14 03:39:05;;;;;;;11.03;3.80;;;15.40;94.20;;;;;;5045509;28;20295;-74
2021/07/14 03:41:31;;;;;;;6.07;3.80;;;15.40;94.10;;;;;;5044235;28;20438;-74
2021/07/14 03:43:58;;;;;;;6.60;4.50;;;15.40;94.00;;;;;;5040008;28;20429;-75
2021/07/14 03:46:26;;;;;;;6.87;3.63;;;15.50;94.00;;;;;;5042582;28;20833;-75
2021/07/14 03:48:53;;;;;;;7.90;4.47;;;15.50;93.70;;;;;;5043866;28;20433;-75
2021/07/14 03:51:22;;;;;;;5.90;4.10;;;15.60;93.50;;;;;;5046574;28;20430;-76
2021/07/14 03:53:50;;;;;;;5.70;4.20;;;15.60;93.10;;;;;;5043330;28;20435;-76
2021/07/14 03:56:16;;;;;;;5.90;4.10;;;15.60;93.30;;;;;;5055523;28;20740;-75
2021/07/14 03:58:46;;;;;;;5.40;3.60;;;15.60;93.20;;;;;;5053817;28;20462;-75
2021/07/14 04:01:12;;;;;;;6.40;4.37;;;15.60;93.20;;;;;;5050018;28;20421;-75
2021/07/14 04:03:39;;;;;;;5.70;3.80;;;15.60;92.90;;;;;;5047166;28;20585;-76
2021/07/14 04:06:08;;;;;;;8.50;4.00;;;15.60;92.90;;;;;;5050756;28;20790;-76
2021/07/14 04:08:43;;;;;;;6.70;4.47;;;15.60;92.80;;;;;;5050940;28;20431;-77
2021/07/14 04:11:13;;;;;;;13.33;4.20;;;15.50;93.10;;;;;;5047370;28;20422;-76
2021/07/14 04:13:40;;;;;;;7.50;4.40;;;15.50;93.20;;;;;;5051128;28;20444;-76
2021/07/14 04:16:06;;;;;;;5.97;4.40;;;15.40;93.40;;;;;;5050941;28;20944;-73
2021/07/14 04:18:32;;;;;;;6.90;4.30;;;15.50;93.30;;;;;;5049650;28;20506;-76
2021/07/14 04:20:58;;;;;;;7.00;4.30;;;15.50;93.40;;;;;;5051532;28;20257;-75
2021/07/14 04:23:24;;;;;;;4.80;3.80;;;15.50;93.20;;;;;;5047340;28;20212;-75
2021/07/14 04:25:50;;;;;;;8.00;4.20;;;15.50;93.20;;;;;;5049640;28;20853;-76
2021/07/14 04:28:16;;;;;;;6.10;4.33;;;15.50;93.00;;;;;;5050618;28;20670;-75
2021/07/14 04:30:42;;;;;;;5.63;3.90;;;15.50;93.20;;;;;;5052644;28;20446;-77
2021/07/14 04:33:07;;;;;;;7.03;4.40;;;15.60;92.80;;;;;;5054354;28;20708;-77
2021/07/14 04:35:34;;;;;;;6.80;3.97;;;15.60;92.80;;;;;;5054055;28;20446;-75
2021/07/14 04:38:00;;;;;;;4.63;3.83;;;15.70;92.90;;;;;;5054154;28;20546;-76
2021/07/14 04:40:26;;;;;;;7.03;4.13;;;15.70;92.50;;;;;;5053893;28;20472;-76
2021/07/14 04:42:52;;;;;;;6.27;3.70;;;15.70;92.20;;;;;;5044619;28;20578;-76
2021/07/14 04:45:18;;;;;;;7.93;3.77;;;15.80;91.70;;;;;;5052568;28;20954;-76
2021/07/14 04:47:45;;;;;;;6.10;4.00;;;15.80;91.70;;;;;;5053879;28;20432;-75
2021/07/14 04:50:11;;;;;;;8.40;4.17;;;15.80;91.70;;;;;;5053881;28;20458;-77
2021/07/14 04:52:36;;;;;;;4.53;3.73;;;15.70;91.70;;;;;;5053178;28;20509;-76
2021/07/14 04:55:02;;;;;;;5.53;3.70;;;15.70;91.70;;;;;;5053609;28;20427;-76
2021/07/14 04:57:28;;;;;;;7.07;4.97;;;15.70;92.00;;;;;;5053787;28;20199;-75
2021/07/14 04:59:54;;;;;;;5.83;4.27;;;15.90;91.90;;;;;;5052159;28;20897;-76
2021/07/14 05:02:20;;;;;;;6.00;4.03;;;15.80;91.60;;;;;;5053038;28;20203;-77
2021/07/14 05:04:45;;;;;;;7.60;3.83;;;15.70;91.80;;;;;;5053650;28;20210;-76
2021/07/14 05:07:11;;;;;;;5.70;3.80;;;15.60;92.00;;;;;;5053463;28;20192;-76
2021/07/14 05:09:37;;;;;;;7.17;4.80;;;15.60;92.00;;;;;;5050773;28;20298;-75
2021/07/14 05:12:03;;;;;;;7.87;4.77;;;15.60;92.10;;;;;;5052457;28;20188;-77
2021/07/14 05:14:29;;;;;;;6.27;3.93;;;15.60;92.30;;;;;;5053253;28;20238;-75
2021/07/14 05:16:55;;;;;;;7.73;4.07;;;15.60;92.10;;;;;;5053599;28;20422;-75
2021/07/14 05:19:21;;;;;;;7.57;3.80;;;15.60;92.00;;;;;;5051523;28;20564;-75
2021/07/14 05:21:50;;;;;;;7.10;4.43;;;15.50;92.20;;;;;;5043538;28;20428;-77
2021/07/14 05:24:16;;;;;;;7.73;4.07;;;15.60;92.00;;;;;;5052757;28;20185;-76
2021/07/14 05:26:42;;;;;;;5.97;3.93;;;15.60;91.70;;;;;;5051958;28;20443;-75
2021/07/14 05:29:08;;;;;;;5.40;4.10;;;15.60;92.10;;;;;;5052811;28;20450;-76
2021/07/14 05:31:34;;;;;;;6.40;4.37;;;15.60;92.10;;;;;;5050696;28;20228;-76
2021/07/14 05:34:00;;;;;;;7.40;4.13;;;15.70;91.90;;;;;;5050863;28;20643;-75
2021/07/14 05:36:25;;;;;;;8.43;4.37;;;15.70;91.80;;;;;;5052726;28;20219;-75
2021/07/14 05:38:51;;;;;;;9.73;4.57;;;15.80;91.60;;;;;;5052495;28;21541;-75
2021/07/14 05:41:17;;;;;;;7.40;3.97;;;15.80;91.30;;;;;;5050889;28;20233;-74
2021/07/14 05:43:43;;;;;;;6.67;3.73;;;15.80;91.20;;;;;;5052977;28;20231;-76
2021/07/14 05:46:09;;;;;;;5.93;3.90;;;15.80;91.20;;;;;;5056099;28;20270;-75
2021/07/14 05:48:34;;;;;;;7.70;4.50;;;15.80;91.30;;;;;;5053259;28;20267;-76
2021/07/14 05:51:00;;;;;;;5.60;4.00;;;15.80;91.20;;;;;;5051269;28;20565;-75
2021/07/14 05:53:26;;;;;;;7.50;4.40;;;15.80;91.40;;;;;;5052538;28;20187;-75
2021/07/14 05:55:52;;;;;;;5.83;3.70;;;15.80;91.60;;;;;;5053104;28;20195;-76
2021/07/14 05:58:18;;;;;;;6.07;4.13;;;15.90;91.20;;;;;;5052810;28;20431;-75
2021/07/14 06:00:44;;;;;;;6.40;4.40;;;15.90;91.00;;;;;;5058825;28;20207;-75
2021/07/14 06:03:10;;;;;;;7.67;4.20;;;15.90;90.90;;;;;;5054708;28;20973;-75
2021/07/14 06:05:36;;;;;;;7.50;4.27;;;15.80;90.90;;;;;;5052535;28;20186;-77
2021/07/14 06:08:03;;;;;;;5.47;3.93;;;15.90;90.90;;;;;;5052593;28;20181;-76
2021/07/14 06:10:29;;;;;;;8.27;3.67;;;16.00;91.10;;;;;;5045709;28;20450;-76
2021/07/14 06:12:59;;;;;;;6.00;3.90;;;16.00;90.60;;;;;;5050994;28;20425;-75
2021/07/14 06:15:26;;;;;;;5.67;4.33;;;16.10;90.40;;;;;;5050488;28;20470;-76
2021/07/14 06:17:52;;;;;;;7.53;4.13;;;16.20;90.80;;;;;;5047472;28;20450;-75
2021/07/14 06:20:19;;;;;;;6.00;3.53;;;16.30;90.30;;;;;;5049976;28;20843;-74
2021/07/14 06:22:45;;;;;;;9.53;4.23;;;16.30;90.10;;;;;;5044131;28;20821;-75
2021/07/14 06:25:12;;;;;;;8.67;3.73;;;16.30;89.20;;;;;;5047666;28;20498;-75
2021/07/14 06:27:38;;;;;;;6.50;4.20;;;16.40;89.60;;;;;;5042434;28;20428;-75
2021/07/14 06:30:08;;;;;;;7.23;3.90;;;16.40;89.70;;;;;;5051826;28;20474;-75
2021/07/14 06:32:38;;;;;;;6.13;3.83;;;16.50;89.50;;;;;;5050458;28;20543;-76
2021/07/14 06:35:06;;;;;;;7.80;3.47;;;16.60;88.90;;;;;;5047803;28;20448;-75
2021/07/14 06:37:32;;;;;;;7.43;3.93;;;16.50;88.70;;;;;;5046159;28;20431;-76
2021/07/14 06:39:59;;;;;;;11.30;3.80;;;16.40;88.30;;;;;;5053576;28;20814;-76
2021/07/14 06:42:24;;;;;;;6.90;4.10;;;16.40;88.90;;;;;;5047935;28;20415;-74
2021/07/14 06:44:50;;;;;;;8.60;4.33;;;16.30;89.60;;;;;;5056694;28;20442;-74
2021/07/14 06:55:03;;;;;;;6.30;4.00;;;16.40;89.30;;;;;;5377249;22;21640;-72
2021/07/14 06:57:29;;;;;;;9.70;4.30;;;16.40;89.60;;;;;;4990388;28;20511;-74
2021/07/14 06:59:55;;;;;;;5.93;4.13;;;16.30;89.20;;;;;;4986187;28;20843;-72
2021/07/14 07:02:20;;;;;;;8.63;4.77;;;16.30;89.60;;;;;;4982154;28;20193;-72
2021/07/14 07:04:46;;;;;;;8.03;4.30;;;16.20;90.20;;;;;;4987600;28;20710;-74
2021/07/14 07:07:12;;;;;;;6.50;4.20;;;16.20;90.40;;;;;;4991258;28;20191;-73
2021/07/14 07:09:38;;;;;;;7.77;3.97;;;16.20;90.40;;;;;;4988725;28;20183;-73
2021/07/14 07:12:04;;;;;;;8.83;3.87;;;16.20;90.50;;;;;;4988112;28;20185;-72
2021/07/14 07:14:30;;;;;;;6.23;4.27;;;16.30;90.60;;;;;;4986609;28;20213;-73
2021/07/14 07:16:56;;;;;;;10.77;4.20;;;16.40;90.40;;;;;;4988959;28;20966;-73
2021/07/14 07:19:22;;;;;;;5.17;3.83;;;16.60;90.10;;;;;;4990791;28;20245;-71
2021/07/14 07:21:50;;;;;;;5.33;4.00;;;16.70;89.30;;;;;;4991639;28;20455;-72
2021/07/14 07:24:15;;;;;;;7.60;4.27;;;16.70;89.20;;;;;;4982496;28;20440;-71
2021/07/14 07:26:44;;;;;;;5.27;4.10;;;16.90;89.20;;;;;;4986932;28;20451;-74
2021/07/14 07:29:10;;;;;;;5.33;3.90;;;17.00;88.30;;;;;;4976778;28;20189;-72
2021/07/14 07:31:36;;;;;;;6.27;3.90;;;17.00;88.00;;;;;;4985916;28;20418;-74
2021/07/14 07:34:02;;;;;;;5.53;3.60;;;17.00;87.40;;;;;;4987119;28;20461;-73
2021/07/14 07:36:28;;;;;;;5.90;4.03;;;17.00;88.00;;;;;;4991493;28;20488;-72
2021/07/14 07:38:53;;;;;;;3.90;3.60;;;17.00;88.10;;;;;;4989501;28;20595;-72
2021/07/14 07:41:21;;;;;;;6.33;3.53;;;17.20;88.30;;;;;;4991245;28;20197;-71
2021/07/14 07:43:48;;;;;;;8.00;3.90;;;17.30;88.00;;;;;;4989878;28;20217;-72
2021/07/14 07:46:14;;;;;;;5.93;3.93;;;17.40;87.40;;;;;;4990332;28;20488;-72
2021/07/14 07:48:40;;;;;;;5.20;3.63;;;17.60;86.20;;;;;;4990499;28;20434;-72
2021/07/14 07:51:07;;;;;;;5.30;3.40;;;17.50;86.00;;;;;;4991289;28;20418;-72
2021/07/14 07:53:33;;;;;;;4.77;3.37;;;17.50;86.00;;;;;;4990987;28;20213;-72
2021/07/14 07:55:59;;;;;;;4.70;3.80;;;17.60;85.90;;;;;;4991820;28;20476;-72
2021/07/14 07:58:25;;;;;;;8.13;4.00;;;17.60;86.20;;;;;;4992783;28;20430;-72
2021/07/14 08:00:51;;;;;;;7.60;4.00;;;17.70;86.20;;;;;;4990082;28;20214;-72
2021/07/14 08:03:17;;;;;;;6.50;3.77;;;17.60;86.30;;;;;;4994257;28;20421;-72
2021/07/14 08:05:43;;;;;;;6.53;3.90;;;17.70;86.60;;;;;;4994224;28;20940;-72
2021/07/14 08:08:10;;;;;;;12.00;4.17;;;17.70;86.50;;;;;;4986856;28;20187;-72
2021/07/14 08:10:36;;;;;;;7.07;4.13;;;17.70;86.00;;;;;;4994617;28;20803;-72
2021/07/14 08:13:02;;;;;;;9.80;4.43;;;17.80;86.20;;;;;;4992525;28;20429;-72
2021/07/14 08:15:28;;;;;;;5.90;3.90;;;17.80;85.90;;;;;;4988957;28;20857;-71
2021/07/14 08:17:54;;;;;;;9.20;4.67;;;17.90;86.20;;;;;;4994001;28;20437;-71
2021/07/14 08:20:19;;;;;;;6.97;4.03;;;17.90;86.00;;;;;;4988051;28;20270;-72
2021/07/14 08:22:45;;;;;;;8.30;4.33;;;17.70;85.30;;;;;;4993084;28;20269;-72
2021/07/14 08:25:12;;;;;;;6.53;4.10;;;17.70;85.90;;;;;;4986741;28;20329;-72
2021/07/14 08:27:39;;;;;;;4.40;3.80;;;17.60;86.90;;;;;;4982808;28;20556;-73
2021/07/14 08:30:07;;;;;;;7.50;4.30;;;17.60;86.50;;;;;;4994369;28;20512;-73
2021/07/14 08:32:33;;;;;;;6.10;4.40;;;17.50;87.10;;;;;;4992106;28;20476;-72
2021/07/14 08:34:59;;;;;;;10.43;4.17;;;17.50;86.80;;;;;;4987796;28;20448;-72
2021/07/14 08:37:26;;;;;;;6.83;3.90;;;17.60;87.30;;;;;;4991637;28;20452;-72
2021/07/14 08:39:54;;;;;;;6.77;4.30;;;17.60;87.60;;;;;;4989415;28;21061;-72
2021/07/14 08:42:21;;;;;;;6.73;3.80;;;17.60;87.10;;;;;;4993429;28;20452;-74
2021/07/14 08:44:48;;;;;;;4.93;3.80;;;17.60;87.30;;;;;;4992674;28;20809;-72
2021/07/14 08:47:15;;;;;;;10.67;3.80;;;17.60;87.40;;;;;;4991306;28;20981;-73
2021/07/14 08:49:43;;;;;;;7.93;4.63;;;17.60;87.40;;;;;;4992956;28;20438;-72
2021/07/14 08:52:10;;;;;;;6.60;4.30;;;17.70;87.30;;;;;;4992058;28;20552;-72
2021/07/14 08:54:43;;;;;;;7.03;4.70;;;17.70;86.90;;;;;;4987545;28;20445;-72
2021/07/14 08:57:14;;;;;;;7.30;3.43;;;17.90;86.60;;;;;;4991664;28;20442;-72
2021/07/14 08:59:40;;;;;;;8.57;4.27;;;18.00;86.80;;;;;;4993680;28;20497;-72
2021/07/14 09:02:08;;;;;;;4.67;3.50;;;18.20;86.60;;;;;;4992462;28;20421;-72
2021/07/14 09:04:34;;;;;;;5.17;3.67;;;18.20;86.20;;;;;;4993885;28;20453;-73
2021/07/14 09:07:04;;;;;;;7.27;4.27;;;18.30;85.60;;;;;;4991146;28;20426;-73
2021/07/14 09:09:30;;;;;;;6.37;4.40;;;18.30;84.70;;;;;;4980651;28;20967;-72
2021/07/14 09:12:00;;;;;;;6.23;4.30;;;18.50;84.40;;;;;;4993774;28;20516;-73
2021/07/14 09:14:33;;;;;;;10.13;4.33;;;18.50;83.60;;;;;;4994124;28;20466;-73
2021/07/14 09:17:22;;;;;;;7.13;3.87;;;18.50;84.10;;;;;;4993144;28;20462;-73
2021/07/14 09:19:49;;;;;;;7.13;4.40;;;18.50;83.60;;;;;;4982033;28;20487;-72
2021/07/14 09:22:27;;;;;;;12.90;4.13;;;18.40;83.40;;;;;;4992222;28;20425;-72
2021/07/14 09:24:57;;;;;;;5.57;4.20;;;18.50;83.60;;;;;;4994655;28;20470;-71
2021/07/14 09:27:31;;;;;;;4.20;3.60;;;18.60;83.80;;;;;;4997288;28;21944;-73
2021/07/14 09:30:15;;;;;;;7.07;4.70;;;18.80;83.10;;;;;;4994730;28;20437;-72
2021/07/14 09:32:50;;;;;;;7.03;4.20;;;19.00;81.90;;;;;;4979034;28;20800;-72
2021/07/14 09:35:29;;;;;;;9.23;4.47;;;18.80;81.20;;;;;;4989608;28;20444;-72
2021/07/14 09:37:57;;;;;;;6.97;4.20;;;18.70;81.50;;;;;;4991863;28;20424;-73
2021/07/14 09:40:23;;;;;;;5.70;4.20;;;18.60;82.70;;;;;;4992829;28;20604;-72
2021/07/14 09:43:03;;;;;;;15.30;4.63;;;18.70;83.10;;;;;;4989667;28;20430;-72
2021/07/14 09:45:48;;;;;;;9.47;6.07;;;19.00;82.70;;;;;;4984553;28;20448;-71
2021/07/14 09:48:25;;;;;;;8.97;5.03;;;19.30;82.20;;;;;;4990441;28;20419;-73
2021/07/14 09:51:12;;;;;;;6.80;4.50;;;19.60;80.50;;;;;;4989815;28;20487;-72
2021/07/14 09:53:46;;;;;;;7.33;4.40;;;19.70;78.90;;;;;;4978096;28;20506;-73
2021/07/14 09:56:27;;;;;;;5.97;4.63;;;19.90;78.40;;;;;;4988713;28;20421;-73
2021/07/14 09:59:15;;;;;;;6.20;4.20;;;20.10;76.80;;;;;;4992081;28;20535;-71
2021/07/14 10:01:45;;;;;;;8.90;4.10;;;19.90;76.50;;;;;;4982674;28;20419;-72
2021/07/14 10:04:12;;;;;;;4.60;3.67;;;20.00;76.70;;;;;;4990298;28;20471;-71
2021/07/14 10:06:39;;;;;;;5.77;4.20;;;20.00;75.70;;;;;;4990938;28;20429;-72
2021/07/14 10:09:05;;;;;;;5.30;4.10;;;19.90;76.20;;;;;;4989092;28;20428;-71
2021/07/14 10:11:32;;;;;;;8.20;3.50;;;19.90;75.80;;;;;;4992510;28;20514;-73
2021/07/14 10:14:11;;;;;;;5.50;4.20;;;20.10;75.20;;;;;;4992598;28;20443;-72
2021/07/14 10:16:42;;;;;;;5.53;3.20;;;20.30;74.20;;;;;;4988479;28;20424;-73
2021/07/14 10:19:12;;;;;;;4.40;3.67;;;20.20;74.30;;;;;;4989655;28;20471;-71
2021/07/14 10:21:45;;;;;;;6.57;3.70;;;20.40;74.20;;;;;;4992306;28;20463;-72
2021/07/14 10:24:13;;;;;;;7.93;3.63;;;20.70;73.30;;;;;;4989601;28;20441;-72
2021/07/14 10:26:41;;;;;;;5.10;3.60;;;20.80;72.00;;;;;;4990770;28;20466;-73
2021/07/14 10:29:08;;;;;;;5.90;3.73;;;20.50;73.00;;;;;;4992115;28;20417;-72
2021/07/14 10:31:36;;;;;;;4.80;3.40;;;20.40;73.50;;;;;;4990263;28;20417;-72
2021/07/14 10:34:04;;;;;;;6.67;3.63;;;20.40;73.30;;;;;;4992556;28;20533;-72
2021/07/14 10:36:33;;;;;;;4.03;3.10;;;20.50;72.60;;;;;;4983480;28;20426;-71
2021/07/14 10:39:21;;;;;;;7.30;3.40;;;20.70;72.90;;;;;;4991822;28;20907;-72
2021/07/14 10:41:48;;;;;;;6.87;3.70;;;20.60;71.80;;;;;;4986986;28;20507;-71
2021/07/14 10:44:16;;;;;;;4.03;3.13;;;20.40;73.00;;;;;;4988207;28;20461;-71
2021/07/14 10:46:42;;;;;;;2.80;2.57;;;20.50;72.70;;;;;;4991595;28;20428;-73
2021/07/14 10:49:09;;;;;;;5.47;3.53;;;20.70;71.60;;;;;;4990092;28;20430;-72
2021/07/14 10:51:36;;;;;;;4.80;3.07;;;20.80;71.00;;;;;;4989277;28;20193;-72
2021/07/14 10:54:09;;;;;;;5.27;3.17;;;20.80;70.70;;;;;;4990204;28;20458;-72
2021/07/14 10:56:44;;;;;;;4.53;3.00;;;20.80;71.10;;;;;;4984373;28;20449;-70
2021/07/14 10:59:11;;;;;;;4.80;2.70;;;20.70;71.40;;;;;;4990668;28;20615;-73
2021/07/14 11:01:44;;;;;;;4.40;3.67;;;20.90;70.40;;;;;;4991691;28;20530;-71
2021/07/14 11:04:12;;;;;;;5.30;3.17;;;21.20;70.40;;;;;;4989764;28;20468;-72
2021/07/14 11:06:56;;;;;;;6.00;3.00;;;21.50;69.10;;;;;;4991505;28;20426;-71
2021/07/14 11:09:39;;;;;;;4.93;2.60;;;21.60;68.60;;;;;;4988833;28;20545;-73
2021/07/14 11:12:08;;;;;;;5.57;3.30;;;21.80;67.70;;;;;;4990794;28;20494;-72
2021/07/14 11:14:37;;;;;;;2.73;2.33;;;21.60;68.00;;;;;;4987478;28;21180;-71
2021/07/14 11:17:05;;;;;;;3.83;2.87;;;21.70;68.30;;;;;;4982978;28;20427;-74
2021/07/14 11:19:53;;;;;;;4.23;2.60;;;21.90;67.90;;;;;;4979076;28;20464;-71
2021/07/14 11:22:38;;;;;;;2.93;2.37;;;22.30;66.90;;;;;;4988622;28;20488;-71
2021/07/14 11:25:05;;;;;;;2.47;2.07;;;22.90;64.70;;;;;;4990038;28;20455;-72
2021/07/14 11:27:41;;;;;;;3.80;2.20;;;23.20;63.80;;;;;;4989777;28;20423;-73
2021/07/14 11:30:07;;;;;;;2.40;2.20;;;23.50;60.90;;;;;;4989844;28;20443;-72
2021/07/14 11:35:15;;;;;;;3.47;2.00;;;23.40;58.50;;;;;;4995153;28;20439;-71
2021/07/14 11:37:41;;;;;;;4.10;2.13;;;23.10;60.40;;;;;;4982790;28;20433;-72
2021/07/14 11:40:23;;;;;;;3.30;1.90;;;23.30;60.10;;;;;;4994124;28;20469;-71
2021/07/14 11:42:56;;;;;;;3.07;2.10;;;23.20;59.20;;;;;;4995370;28;20193;-73
2021/07/14 11:45:35;;;;;;;2.67;2.33;;;23.00;59.30;;;;;;4993920;28;20509;-73
2021/07/14 11:48:15;;;;;;;1.90;1.67;;;22.90;60.90;;;;;;4994663;28;20483;-73
2021/07/14 11:53:25;;;;;;;3.23;2.40;;;22.70;60.30;;;;;;4993620;28;20482;-73
2021/07/14 11:56:04;;;;;;;4.10;2.37;;;22.60;60.40;;;;;;4993356;28;20973;-72
2021/07/14 11:58:45;;;;;;;2.33;2.07;;;22.20;62.00;;;;;;4981427;28;20516;-72
2021/07/14 12:01:17;;;;;;;1.60;1.50;;;22.00;61.90;;;;;;4995220;28;20427;-71
2021/07/14 12:04:01;;;;;;;5.10;2.40;;;21.80;61.30;;;;;;4995930;28;21015;-71
2021/07/14 12:06:44;;;;;;;3.40;1.83;;;21.90;63.10;;;;;;4986544;28;20422;-73
2021/07/14 12:09:12;;;;;;;3.47;2.40;;;22.30;61.90;;;;;;4998547;28;20481;-72
2021/07/14 12:11:50;;;;;;;3.27;2.70;;;22.60;60.40;;;;;;4993089;28;20933;-71
2021/07/14 12:14:16;;;;;;;3.13;1.90;;;22.70;61.00;;;;;;4998701;28;20811;-71
2021/07/14 12:16:52;;;;;;;2.90;2.43;;;22.60;60.90;;;;;;4998161;28;20457;-71
2021/07/14 12:19:27;;;;;;;3.37;2.10;;;22.50;62.00;;;;;;4994531;28;20891;-72
2021/07/14 12:21:53;;;;;;;4.33;2.40;;;22.50;60.60;;;;;;4997004;28;20427;-71
2021/07/14 12:24:30;;;;;;;4.00;2.10;;;22.20;61.50;;;;;;4997854;28;20454;-73
2021/07/14 12:27:02;;;;;;;2.37;2.17;;;22.40;61.50;;;;;;4995085;28;20937;-73
2021/07/14 12:29:29;;;;;;;2.80;2.17;;;22.60;60.60;;;;;;4983947;28;20513;-72
2021/07/14 12:31:55;;;;;;;3.67;2.20;;;22.70;59.50;;;;;;4996895;28;20431;-71
2021/07/14 12:34:25;;;;;;;2.50;2.00;;;22.80;60.90;;;;;;4996617;28;20497;-71
2021/07/14 12:36:52;;;;;;;2.40;1.90;;;23.30;59.70;;;;;;4996486;28;20574;-72
2021/07/14 12:39:29;;;;;;;4.80;2.00;;;23.30;58.20;;;;;;4998767;28;20467;-71
2021/07/14 12:41:58;;;;;;;2.40;2.00;;;23.40;58.70;;;;;;4992461;28;20481;-71
2021/07/14 12:44:24;;;;;;;2.33;2.07;;;23.60;58.50;;;;;;4995850;28;20476;-73
2021/07/14 12:46:51;;;;;;;2.50;2.20;;;23.20;58.90;;;;;;4989747;28;20429;-72
2021/07/14 12:49:22;;;;;;;2.50;2.03;;;23.30;59.50;;;;;;4997695;28;20452;-73
2021/07/14 12:52:18;;;;;;;3.53;2.23;;;23.50;59.70;;;;;;4991531;28;20512;-71
2021/07/14 12:54:46;;;;;;;4.37;1.90;;;23.80;59.20;;;;;;4990528;28;20445;-71
2021/07/14 12:57:30;;;;;;;2.13;1.90;;;23.40;58.20;;;;;;4996976;28;20452;-72
2021/07/14 12:59:59;;;;;;;2.27;2.10;;;23.00;60.00;;;;;;4993498;28;20483;-72
2021/07/14 13:02:36;;;;;;;3.27;2.00;;;23.10;59.60;;;;;;4993532;28;20964;-70
2021/07/14 13:05:02;;;;;;;2.40;2.23;;;23.50;59.70;;;;;;4992189;28;20425;-71
2021/07/14 13:07:30;;;;;;;2.43;2.00;;;23.70;58.20;;;;;;4997041;28;20818;-72
2021/07/14 13:09:58;;;;;;;5.93;2.17;;;23.60;57.70;;;;;;4997220;28;20421;-72
2021/07/14 13:12:26;;;;;;;4.13;2.50;;;23.60;58.90;;;;;;4994941;28;20421;-72
2021/07/14 13:14:53;;;;;;;2.80;2.10;;;23.70;59.20;;;;;;4993767;28;20568;-73
2021/07/14 13:17:27;;;;;;;3.53;2.27;;;23.90;57.80;;;;;;4991106;28;20432;-73
2021/07/14 13:20:09;;;;;;;6.17;2.23;;;24.00;58.10;;;;;;4993373;28;20507;-72